This is the latest recevied weather packets stored in our database for station/object DK7LH-6. If no packets are shown the sender has not sent any weather packets the latest 10 day(s).
| Time | Temp. | Humidity | Pressure | Rain* | Wind** | Luminosity | Snow |
|---|---|---|---|---|---|---|---|
| 1778340620 | 16.11° C | 61% | 1017.2 hPa | 0 mm | - | 166 W/m² | - |
| 1778339752 | 16.11° C | 63% | 1017.4 hPa | 0 mm | - | 95 W/m² | - |
| 1778338822 | 16.67° C | 61% | 1017.6 hPa | 0 mm | - | 135 W/m² | - |
| 1778337954 | 16.67° C | 61% | 1017.5 hPa | 0 mm | - | 398 W/m² | - |
| 1778337024 | 17.22° C | 61% | 1017.8 hPa | 0 mm | - | 154 W/m² | - |
| 1778336156 | 16.11° C | 64% | 1017.8 hPa | 0 mm | - | 174 W/m² | - |
| 1778335226 | 16.67° C | 63% | 1018.1 hPa | 0 mm | - | 201 W/m² | - |
| 1778334358 | 16.11° C | 63% | 1018.3 hPa | 0 mm | - | 331 W/m² | - |
| 1778333428 | 16.67° C | 61% | 1018.9 hPa | 0 mm | - | 207 W/m² | - |
| 1778332529 | 16.67° C | 60% | 1019 hPa | 0 mm | - | 487 W/m² | - |
| 1778331630 | 15.56° C | 64% | 1018.6 hPa | 0 mm | - | 308 W/m² | - |
| 1778330763 | 15.56° C | 64% | 1018.9 hPa | 0 mm | - | 147 W/m² | - |
| 1778329832 | 15.56° C | 63% | 1018.9 hPa | 0 mm | - | 257 W/m² | - |
| 1778328964 | 15° C | 65% | 1019 hPa | 0 mm | - | 260 W/m² | - |
| 1778328034 | 15° C | 66% | 1019.2 hPa | 0 mm | - | 95 W/m² | - |
| 1778327166 | 15° C | 64% | 1019.3 hPa | 0 mm | - | 234 W/m² | - |
| 1778326236 | 15° C | 65% | 1019.3 hPa | 0 mm | - | 266 W/m² | - |
| 1778325337 | 15° C | 65% | 1019.5 hPa | 0 mm | - | 187 W/m² | - |
| 1778324471 | 15° C | 65% | 1019.5 hPa | 0 mm | - | 188 W/m² | - |
| 1778323540 | 14.44° C | 65% | 1019.6 hPa | 0 mm | - | 170 W/m² | - |
| 1778322671 | 14.44° C | 66% | 1019.7 hPa | 0 mm | - | 143 W/m² | - |
| 1778321741 | 14.44° C | 64% | 1019.8 hPa | 0 mm | - | 133 W/m² | - |
| 1778320873 | 15° C | 68% | 1019.8 hPa | 0 mm | - | 209 W/m² | - |
| 1778319943 | 15° C | 69% | 1019.8 hPa | 0 mm | - | 534 W/m² | - |
| 1778319076 | 15° C | 71% | 1019.9 hPa | 0 mm | - | 702 W/m² | - |
* Rain latest hour (hover to see other rain measurements)
** Current wind speed in m/s (hover to see current wind gust speed)